Aeroporto :
LOGIN :

Iscrizione | Disclaimer

   EN    FR    IT 

 










Sommario :    VFR   VFR Marginale   IFR   IFR Intensivo   IFR Molto Intensivo
Visibilità : 
Base nubi : 
>= 8 km
>= 3000ft
5 / 8 km
1000 / 3000 ft
1500m / 5 km
500 / 1000 ft
800 / 1500m
200 / 500 ft
< 800m
< 200 ft
Simboli :   Temporali  Nebbia  Neve Forte  Precipitazioni Forti  Vento > 20 kt
SIGMETs :   Varie  Temporali  Ghiacco  Turbolenza  Onda orograficha  Ceneri Vulcaniche







- Altitudine del aeroporto : 0 ft


ENQC - Troll C Platform

ULTIMO METAR :
  • 200050Z AUTO 04007KT 9999NDV NCD 12/08 Q1012 W///S4

METARs OBSOLETI :
  • 200020Z AUTO 05006KT 9999NDV NCD 12/08 Q1013 W///S4
  • 192350Z AUTO 05006KT 9999NDV NCD 12/08 Q1013 W///S4
  • 192320Z AUTO 04005KT 9999NDV NCD 12/10 Q1013 W///S3
  • 192250Z AUTO 04005KT 9999NDV NCD 11/09 Q1012 W///S4
  • 192220Z AUTO 05005KT 9999NDV NCD 11/09 Q1012 W///S4

TAF N/A
Nessun NOTAM noto per questo aeroporto.



MetMap, La meteo Aeronautica in un colpo d'occhio ! - Copyright ORBIFLY Dicembre 2007 - Disclaimer

ORBIFLY MET'MAP TEAM :

Programmazione e sviluppo : Alexandra Zaïnal
Concezione e sviluppo : Baudouin d'Aumeries
Co-Programmazione e sviluppo : Marc-Olivier Méhu
Supporto tecnico e logistico : Manuel Goepfert
Aiuto per la traduzione : Arnaldo La Scala

Contatto : metmap@orbifly.com




FONTI E CREDITI :

   NOAA